sensor_id;sensor_type;location;lat;lon;timestamp;P1;durP1;ratioP1;P2;durP2;ratioP2
63807;SDS011;49961;43.970;22.868;2023-05-29T00:00:14;7.00;;;5.80;;
63807;SDS011;49961;43.970;22.868;2023-05-29T00:01:17;7.20;;;5.37;;
63807;SDS011;49961;43.970;22.868;2023-05-29T00:02:18;7.57;;;5.53;;
63807;SDS011;49961;43.970;22.868;2023-05-29T00:03:19;10.23;;;5.73;;
63807;SDS011;49961;43.970;22.868;2023-05-29T00:04:19;6.13;;;5.53;;
63807;SDS011;49961;43.970;22.868;2023-05-29T00:05:21;8.17;;;5.43;;
63807;SDS011;49961;43.970;22.868;2023-05-29T00:06:23;9.07;;;5.70;;
63807;SDS011;49961;43.970;22.868;2023-05-29T00:07:24;7.50;;;5.57;;
63807;SDS011;49961;43.970;22.868;2023-05-29T00:08:25;9.30;;;5.80;;
63807;SDS011;49961;43.970;22.868;2023-05-29T00:09:25;8.03;;;5.83;;
63807;SDS011;49961;43.970;22.868;2023-05-29T00:10:26;9.17;;;5.37;;
63807;SDS011;49961;43.970;22.868;2023-05-29T00:11:26;9.47;;;6.00;;
63807;SDS011;49961;43.970;22.868;2023-05-29T00:12:27;10.17;;;5.87;;
63807;SDS011;49961;43.970;22.868;2023-05-29T00:13:27;8.30;;;5.70;;
63807;SDS011;49961;43.970;22.868;2023-05-29T00:14:28;9.70;;;5.47;;
63807;SDS011;49961;43.970;22.868;2023-05-29T00:15:28;8.37;;;5.60;;
63807;SDS011;49961;43.970;22.868;2023-05-29T00:16:30;8.97;;;6.40;;
63807;SDS011;49961;43.970;22.868;2023-05-29T00:17:30;8.60;;;6.83;;
63807;SDS011;49961;43.970;22.868;2023-05-29T00:18:34;10.50;;;6.70;;
63807;SDS011;49961;43.970;22.868;2023-05-29T00:19:45;11.57;;;6.80;;
63807;SDS011;49961;43.970;22.868;2023-05-29T00:20:45;12.70;;;6.80;;
63807;SDS011;49961;43.970;22.868;2023-05-29T00:21:46;8.60;;;6.10;;
63807;SDS011;49961;43.970;22.868;2023-05-29T00:22:49;7.23;;;6.20;;
63807;SDS011;49961;43.970;22.868;2023-05-29T00:23:50;11.57;;;6.00;;
63807;SDS011;49961;43.970;22.868;2023-05-29T00:24:50;10.20;;;6.00;;
63807;SDS011;49961;43.970;22.868;2023-05-29T00:25:51;8.13;;;6.00;;
63807;SDS011;49961;43.970;22.868;2023-05-29T00:26:51;10.27;;;6.17;;
63807;SDS011;49961;43.970;22.868;2023-05-29T00:27:51;7.80;;;6.23;;
63807;SDS011;49961;43.970;22.868;2023-05-29T00:28:52;8.40;;;6.00;;
63807;SDS011;49961;43.970;22.868;2023-05-29T00:29:52;7.90;;;6.10;;
63807;SDS011;49961;43.970;22.868;2023-05-29T00:30:53;8.50;;;6.20;;
63807;SDS011;49961;43.970;22.868;2023-05-29T00:31:53;10.47;;;7.00;;
63807;SDS011;49961;43.970;22.868;2023-05-29T00:32:53;11.17;;;6.47;;
63807;SDS011;49961;43.970;22.868;2023-05-29T00:33:54;7.27;;;6.20;;
63807;SDS011;49961;43.970;22.868;2023-05-29T00:34:54;9.07;;;6.50;;
63807;SDS011;49961;43.970;22.868;2023-05-29T00:35:55;10.93;;;6.33;;
63807;SDS011;49961;43.970;22.868;2023-05-29T00:36:56;8.40;;;6.20;;
63807;SDS011;49961;43.970;22.868;2023-05-29T00:37:57;7.13;;;6.43;;
63807;SDS011;49961;43.970;22.868;2023-05-29T00:38:58;11.17;;;6.13;;
63807;SDS011;49961;43.970;22.868;2023-05-29T00:39:58;7.83;;;6.03;;
63807;SDS011;49961;43.970;22.868;2023-05-29T00:40:59;7.80;;;5.83;;
63807;SDS011;49961;43.970;22.868;2023-05-29T00:41:59;12.17;;;6.50;;
63807;SDS011;49961;43.970;22.868;2023-05-29T00:42:59;7.50;;;6.40;;
63807;SDS011;49961;43.970;22.868;2023-05-29T00:44:00;7.60;;;5.77;;
63807;SDS011;49961;43.970;22.868;2023-05-29T00:45:00;6.67;;;5.97;;
63807;SDS011;49961;43.970;22.868;2023-05-29T00:46:01;8.40;;;6.10;;
63807;SDS011;49961;43.970;22.868;2023-05-29T00:47:01;11.03;;;6.30;;
63807;SDS011;49961;43.970;22.868;2023-05-29T00:48:05;6.73;;;6.03;;
63807;SDS011;49961;43.970;22.868;2023-05-29T00:49:07;10.87;;;6.03;;
63807;SDS011;49961;43.970;22.868;2023-05-29T00:50:10;7.50;;;5.67;;
63807;SDS011;49961;43.970;22.868;2023-05-29T00:51:13;9.60;;;5.80;;
63807;SDS011;49961;43.970;22.868;2023-05-29T00:52:15;6.90;;;5.63;;
63807;SDS011;49961;43.970;22.868;2023-05-29T00:53:15;10.33;;;6.20;;
63807;SDS011;49961;43.970;22.868;2023-05-29T00:54:17;9.40;;;6.33;;
63807;SDS011;49961;43.970;22.868;2023-05-29T00:55:21;9.47;;;5.57;;
63807;SDS011;49961;43.970;22.868;2023-05-29T00:56:22;9.33;;;6.20;;
63807;SDS011;49961;43.970;22.868;2023-05-29T00:57:23;10.33;;;6.23;;
63807;SDS011;49961;43.970;22.868;2023-05-29T00:58:23;6.33;;;5.70;;
63807;SDS011;49961;43.970;22.868;2023-05-29T00:59:27;9.93;;;6.03;;
63807;SDS011;49961;43.970;22.868;2023-05-29T01:00:30;9.03;;;6.13;;
63807;SDS011;49961;43.970;22.868;2023-05-29T01:01:30;11.47;;;6.13;;
63807;SDS011;49961;43.970;22.868;2023-05-29T01:02:32;10.27;;;6.27;;
63807;SDS011;49961;43.970;22.868;2023-05-29T01:03:33;7.97;;;5.67;;
63807;SDS011;49961;43.970;22.868;2023-05-29T01:04:35;10.80;;;5.80;;
63807;SDS011;49961;43.970;22.868;2023-05-29T01:05:36;9.30;;;6.63;;
63807;SDS011;49961;43.970;22.868;2023-05-29T01:06:37;8.20;;;5.83;;
63807;SDS011;49961;43.970;22.868;2023-05-29T01:07:37;10.30;;;5.37;;
63807;SDS011;49961;43.970;22.868;2023-05-29T01:08:38;13.47;;;5.23;;
63807;SDS011;49961;43.970;22.868;2023-05-29T01:09:39;8.57;;;5.43;;
63807;SDS011;49961;43.970;22.868;2023-05-29T01:10:40;9.17;;;6.17;;
63807;SDS011;49961;43.970;22.868;2023-05-29T01:13:03;8.40;;;5.83;;
63807;SDS011;49961;43.970;22.868;2023-05-29T01:15:46;12.33;;;5.83;;
63807;SDS011;49961;43.970;22.868;2023-05-29T01:16:52;8.40;;;5.77;;
63807;SDS011;49961;43.970;22.868;2023-05-29T01:18:23;11.07;;;5.83;;
63807;SDS011;49961;43.970;22.868;2023-05-29T01:20:46;7.70;;;6.10;;
63807;SDS011;49961;43.970;22.868;2023-05-29T01:24:41;10.27;;;5.50;;
63807;SDS011;49961;43.970;22.868;2023-05-29T01:25:58;9.33;;;6.13;;
63807;SDS011;49961;43.970;22.868;2023-05-29T01:27:05;12.33;;;5.60;;
63807;SDS011;49961;43.970;22.868;2023-05-29T01:28:07;9.73;;;5.40;;
63807;SDS011;49961;43.970;22.868;2023-05-29T01:29:10;11.40;;;5.70;;
63807;SDS011;49961;43.970;22.868;2023-05-29T01:30:14;10.80;;;5.80;;
63807;SDS011;49961;43.970;22.868;2023-05-29T01:31:17;10.90;;;6.20;;
63807;SDS011;49961;43.970;22.868;2023-05-29T01:32:19;7.63;;;5.70;;
63807;SDS011;49961;43.970;22.868;2023-05-29T01:33:20;6.77;;;5.97;;
63807;SDS011;49961;43.970;22.868;2023-05-29T01:34:21;10.47;;;6.10;;
63807;SDS011;49961;43.970;22.868;2023-05-29T01:35:21;10.40;;;6.10;;
63807;SDS011;49961;43.970;22.868;2023-05-29T01:36:22;15.43;;;5.63;;
63807;SDS011;49961;43.970;22.868;2023-05-29T01:37:24;8.47;;;6.00;;
63807;SDS011;49961;43.970;22.868;2023-05-29T01:38:24;8.00;;;6.07;;
63807;SDS011;49961;43.970;22.868;2023-05-29T01:39:25;9.17;;;6.20;;
63807;SDS011;49961;43.970;22.868;2023-05-29T01:40:26;11.00;;;5.90;;
63807;SDS011;49961;43.970;22.868;2023-05-29T01:41:26;10.80;;;6.50;;
63807;SDS011;49961;43.970;22.868;2023-05-29T01:42:28;8.57;;;5.83;;
63807;SDS011;49961;43.970;22.868;2023-05-29T01:43:29;7.23;;;6.10;;
63807;SDS011;49961;43.970;22.868;2023-05-29T01:44:31;9.43;;;5.90;;
63807;SDS011;49961;43.970;22.868;2023-05-29T01:45:31;9.53;;;6.30;;
63807;SDS011;49961;43.970;22.868;2023-05-29T01:46:32;6.57;;;5.97;;
63807;SDS011;49961;43.970;22.868;2023-05-29T01:47:33;7.70;;;6.27;;
63807;SDS011;49961;43.970;22.868;2023-05-29T01:48:34;11.50;;;5.57;;
63807;SDS011;49961;43.970;22.868;2023-05-29T01:49:36;9.80;;;5.73;;
63807;SDS011;49961;43.970;22.868;2023-05-29T01:50:37;8.40;;;5.60;;
63807;SDS011;49961;43.970;22.868;2023-05-29T01:51:39;8.43;;;5.63;;
63807;SDS011;49961;43.970;22.868;2023-05-29T01:52:41;14.53;;;6.20;;
63807;SDS011;49961;43.970;22.868;2023-05-29T01:53:42;7.40;;;5.50;;
63807;SDS011;49961;43.970;22.868;2023-05-29T01:54:44;7.30;;;5.33;;
63807;SDS011;49961;43.970;22.868;2023-05-29T01:55:44;8.77;;;5.47;;
63807;SDS011;49961;43.970;22.868;2023-05-29T01:56:45;10.10;;;5.57;;
63807;SDS011;49961;43.970;22.868;2023-05-29T01:57:46;11.47;;;6.13;;
63807;SDS011;49961;43.970;22.868;2023-05-29T01:58:48;11.37;;;5.47;;
63807;SDS011;49961;43.970;22.868;2023-05-29T01:59:50;10.83;;;6.13;;
63807;SDS011;49961;43.970;22.868;2023-05-29T02:00:51;8.47;;;5.87;;
63807;SDS011;49961;43.970;22.868;2023-05-29T02:01:52;10.17;;;5.90;;
63807;SDS011;49961;43.970;22.868;2023-05-29T02:02:52;9.27;;;6.03;;
63807;SDS011;49961;43.970;22.868;2023-05-29T02:03:53;8.63;;;5.67;;
63807;SDS011;49961;43.970;22.868;2023-05-29T02:04:53;10.17;;;5.93;;
63807;SDS011;49961;43.970;22.868;2023-05-29T02:05:54;9.17;;;5.73;;
63807;SDS011;49961;43.970;22.868;2023-05-29T02:06:55;9.77;;;5.50;;
63807;SDS011;49961;43.970;22.868;2023-05-29T02:07:56;6.77;;;5.70;;
63807;SDS011;49961;43.970;22.868;2023-05-29T02:08:56;9.93;;;6.07;;
63807;SDS011;49961;43.970;22.868;2023-05-29T02:09:57;11.03;;;5.80;;
63807;SDS011;49961;43.970;22.868;2023-05-29T02:10:57;14.60;;;6.33;;
63807;SDS011;49961;43.970;22.868;2023-05-29T02:11:57;8.90;;;5.90;;
63807;SDS011;49961;43.970;22.868;2023-05-29T02:12:58;10.93;;;6.07;;
63807;SDS011;49961;43.970;22.868;2023-05-29T02:13:58;11.87;;;6.67;;
63807;SDS011;49961;43.970;22.868;2023-05-29T02:15:02;10.97;;;6.27;;
63807;SDS011;49961;43.970;22.868;2023-05-29T02:16:02;12.27;;;6.30;;
63807;SDS011;49961;43.970;22.868;2023-05-29T02:17:03;11.63;;;5.83;;
63807;SDS011;49961;43.970;22.868;2023-05-29T02:18:04;9.90;;;6.27;;
63807;SDS011;49961;43.970;22.868;2023-05-29T02:19:04;10.53;;;5.80;;
63807;SDS011;49961;43.970;22.868;2023-05-29T02:20:05;15.60;;;6.20;;
63807;SDS011;49961;43.970;22.868;2023-05-29T02:21:07;7.03;;;5.53;;
63807;SDS011;49961;43.970;22.868;2023-05-29T02:22:08;10.30;;;5.97;;
63807;SDS011;49961;43.970;22.868;2023-05-29T02:23:08;12.50;;;6.23;;
63807;SDS011;49961;43.970;22.868;2023-05-29T02:24:09;8.70;;;5.60;;
63807;SDS011;49961;43.970;22.868;2023-05-29T02:25:10;8.43;;;5.73;;
63807;SDS011;49961;43.970;22.868;2023-05-29T02:26:11;7.30;;;5.00;;
63807;SDS011;49961;43.970;22.868;2023-05-29T02:27:13;8.03;;;5.20;;
63807;SDS011;49961;43.970;22.868;2023-05-29T02:28:13;10.87;;;5.23;;
63807;SDS011;49961;43.970;22.868;2023-05-29T02:29:14;8.03;;;5.23;;
63807;SDS011;49961;43.970;22.868;2023-05-29T02:30:14;7.50;;;4.90;;
63807;SDS011;49961;43.970;22.868;2023-05-29T02:31:15;15.43;;;6.23;;
63807;SDS011;49961;43.970;22.868;2023-05-29T02:32:16;9.20;;;4.97;;
63807;SDS011;49961;43.970;22.868;2023-05-29T02:33:16;10.83;;;4.83;;
63807;SDS011;49961;43.970;22.868;2023-05-29T02:34:16;6.97;;;4.50;;
63807;SDS011;49961;43.970;22.868;2023-05-29T02:35:17;10.97;;;5.10;;
63807;SDS011;49961;43.970;22.868;2023-05-29T02:36:20;16.57;;;4.77;;
63807;SDS011;49961;43.970;22.868;2023-05-29T02:37:21;11.97;;;5.27;;
63807;SDS011;49961;43.970;22.868;2023-05-29T02:38:25;10.00;;;4.60;;
63807;SDS011;49961;43.970;22.868;2023-05-29T02:39:25;10.43;;;4.67;;
63807;SDS011;49961;43.970;22.868;2023-05-29T02:40:26;14.27;;;5.53;;
63807;SDS011;49961;43.970;22.868;2023-05-29T02:41:26;12.63;;;4.50;;
63807;SDS011;49961;43.970;22.868;2023-05-29T02:42:26;13.40;;;5.10;;
63807;SDS011;49961;43.970;22.868;2023-05-29T02:43:27;16.03;;;4.97;;
63807;SDS011;49961;43.970;22.868;2023-05-29T02:44:27;7.87;;;4.40;;
63807;SDS011;49961;43.970;22.868;2023-05-29T02:45:28;15.13;;;5.00;;
63807;SDS011;49961;43.970;22.868;2023-05-29T02:46:28;8.70;;;4.33;;
63807;SDS011;49961;43.970;22.868;2023-05-29T02:47:29;8.03;;;4.70;;
63807;SDS011;49961;43.970;22.868;2023-05-29T02:48:29;15.27;;;4.50;;
63807;SDS011;49961;43.970;22.868;2023-05-29T02:49:29;11.53;;;4.37;;
63807;SDS011;49961;43.970;22.868;2023-05-29T02:50:30;15.93;;;4.63;;
63807;SDS011;49961;43.970;22.868;2023-05-29T02:51:30;17.60;;;4.93;;
63807;SDS011;49961;43.970;22.868;2023-05-29T02:52:32;17.40;;;5.03;;
63807;SDS011;49961;43.970;22.868;2023-05-29T02:53:32;12.00;;;4.57;;
63807;SDS011;49961;43.970;22.868;2023-05-29T02:54:33;15.63;;;4.30;;
63807;SDS011;49961;43.970;22.868;2023-05-29T02:55:33;14.30;;;4.63;;
63807;SDS011;49961;43.970;22.868;2023-05-29T02:56:35;11.43;;;4.80;;
63807;SDS011;49961;43.970;22.868;2023-05-29T02:57:36;10.33;;;4.60;;
63807;SDS011;49961;43.970;22.868;2023-05-29T02:58:36;8.07;;;4.33;;
63807;SDS011;49961;43.970;22.868;2023-05-29T02:59:36;11.40;;;4.70;;
63807;SDS011;49961;43.970;22.868;2023-05-29T03:00:37;12.70;;;5.10;;
63807;SDS011;49961;43.970;22.868;2023-05-29T03:01:38;22.17;;;5.20;;
63807;SDS011;49961;43.970;22.868;2023-05-29T03:02:38;15.70;;;5.03;;
63807;SDS011;49961;43.970;22.868;2023-05-29T03:03:39;13.57;;;4.63;;
63807;SDS011;49961;43.970;22.868;2023-05-29T03:04:39;12.80;;;4.77;;
63807;SDS011;49961;43.970;22.868;2023-05-29T03:05:40;12.13;;;4.47;;
63807;SDS011;49961;43.970;22.868;2023-05-29T03:06:40;14.13;;;5.03;;
63807;SDS011;49961;43.970;22.868;2023-05-29T03:07:41;12.87;;;4.73;;
63807;SDS011;49961;43.970;22.868;2023-05-29T03:08:41;17.13;;;5.03;;
63807;SDS011;49961;43.970;22.868;2023-05-29T03:09:45;11.27;;;4.30;;
63807;SDS011;49961;43.970;22.868;2023-05-29T03:10:45;12.93;;;5.23;;
63807;SDS011;49961;43.970;22.868;2023-05-29T03:11:47;16.33;;;4.80;;
63807;SDS011;49961;43.970;22.868;2023-05-29T03:12:52;17.50;;;4.97;;
63807;SDS011;49961;43.970;22.868;2023-05-29T03:13:52;19.50;;;5.07;;
63807;SDS011;49961;43.970;22.868;2023-05-29T03:14:52;12.27;;;4.63;;
63807;SDS011;49961;43.970;22.868;2023-05-29T03:15:53;15.83;;;4.93;;
63807;SDS011;49961;43.970;22.868;2023-05-29T03:16:56;12.83;;;4.73;;
63807;SDS011;49961;43.970;22.868;2023-05-29T03:17:57;13.10;;;5.70;;
63807;SDS011;49961;43.970;22.868;2023-05-29T03:18:57;13.70;;;4.90;;
63807;SDS011;49961;43.970;22.868;2023-05-29T03:19:58;7.10;;;4.03;;
63807;SDS011;49961;43.970;22.868;2023-05-29T03:20:58;13.57;;;4.93;;
63807;SDS011;49961;43.970;22.868;2023-05-29T03:21:58;15.17;;;4.80;;
63807;SDS011;49961;43.970;22.868;2023-05-29T03:22:59;11.37;;;4.80;;
63807;SDS011;49961;43.970;22.868;2023-05-29T03:24:00;13.57;;;4.87;;
63807;SDS011;49961;43.970;22.868;2023-05-29T03:25:01;16.70;;;5.10;;
63807;SDS011;49961;43.970;22.868;2023-05-29T03:26:05;18.17;;;5.10;;
63807;SDS011;49961;43.970;22.868;2023-05-29T03:27:05;25.30;;;5.20;;
63807;SDS011;49961;43.970;22.868;2023-05-29T03:28:06;18.50;;;4.97;;
63807;SDS011;49961;43.970;22.868;2023-05-29T03:29:06;14.23;;;4.63;;
63807;SDS011;49961;43.970;22.868;2023-05-29T03:30:07;16.93;;;5.03;;
63807;SDS011;49961;43.970;22.868;2023-05-29T03:31:09;14.03;;;4.30;;
63807;SDS011;49961;43.970;22.868;2023-05-29T03:32:10;14.47;;;4.53;;
63807;SDS011;49961;43.970;22.868;2023-05-29T03:33:10;14.93;;;4.97;;
63807;SDS011;49961;43.970;22.868;2023-05-29T03:34:10;15.50;;;4.97;;
63807;SDS011;49961;43.970;22.868;2023-05-29T03:35:11;11.97;;;5.23;;
63807;SDS011;49961;43.970;22.868;2023-05-29T03:36:11;15.17;;;5.10;;
63807;SDS011;49961;43.970;22.868;2023-05-29T03:37:12;9.40;;;4.80;;
63807;SDS011;49961;43.970;22.868;2023-05-29T03:38:12;11.27;;;5.17;;
63807;SDS011;49961;43.970;22.868;2023-05-29T03:39:13;13.07;;;5.00;;
63807;SDS011;49961;43.970;22.868;2023-05-29T03:40:13;12.30;;;5.20;;
63807;SDS011;49961;43.970;22.868;2023-05-29T03:41:14;10.43;;;5.17;;
63807;SDS011;49961;43.970;22.868;2023-05-29T03:42:14;11.93;;;5.33;;
63807;SDS011;49961;43.970;22.868;2023-05-29T03:43:15;8.40;;;5.23;;
63807;SDS011;49961;43.970;22.868;2023-05-29T03:44:15;15.10;;;5.40;;
63807;SDS011;49961;43.970;22.868;2023-05-29T03:45:16;13.07;;;5.00;;
63807;SDS011;49961;43.970;22.868;2023-05-29T03:46:16;9.33;;;5.17;;
63807;SDS011;49961;43.970;22.868;2023-05-29T03:47:16;13.37;;;5.43;;
63807;SDS011;49961;43.970;22.868;2023-05-29T03:48:17;17.63;;;5.60;;
63807;SDS011;49961;43.970;22.868;2023-05-29T03:49:17;14.03;;;4.93;;
63807;SDS011;49961;43.970;22.868;2023-05-29T03:50:18;16.97;;;5.70;;
63807;SDS011;49961;43.970;22.868;2023-05-29T03:51:18;10.97;;;5.53;;
63807;SDS011;49961;43.970;22.868;2023-05-29T03:52:19;12.10;;;5.63;;
63807;SDS011;49961;43.970;22.868;2023-05-29T03:53:19;11.30;;;5.20;;
63807;SDS011;49961;43.970;22.868;2023-05-29T03:54:20;12.80;;;5.33;;
63807;SDS011;49961;43.970;22.868;2023-05-29T03:55:20;16.60;;;6.07;;
63807;SDS011;49961;43.970;22.868;2023-05-29T03:56:21;14.23;;;5.30;;
63807;SDS011;49961;43.970;22.868;2023-05-29T03:57:21;14.90;;;5.50;;
63807;SDS011;49961;43.970;22.868;2023-05-29T03:58:22;5.90;;;2.80;;
63807;SDS011;49961;43.970;22.868;2023-05-29T03:59:22;13.10;;;3.60;;
63807;SDS011;49961;43.970;22.868;2023-05-29T04:00:22;11.17;;;3.63;;
63807;SDS011;49961;43.970;22.868;2023-05-29T04:01:23;11.60;;;3.20;;
63807;SDS011;49961;43.970;22.868;2023-05-29T04:02:24;5.47;;;2.83;;
63807;SDS011;49961;43.970;22.868;2023-05-29T04:03:24;12.03;;;4.60;;
63807;SDS011;49961;43.970;22.868;2023-05-29T04:04:24;4.87;;;2.80;;
63807;SDS011;49961;43.970;22.868;2023-05-29T04:05:25;6.23;;;3.17;;
63807;SDS011;49961;43.970;22.868;2023-05-29T04:06:26;7.17;;;2.87;;
63807;SDS011;49961;43.970;22.868;2023-05-29T04:07:26;7.63;;;4.37;;
63807;SDS011;49961;43.970;22.868;2023-05-29T04:08:27;8.77;;;4.00;;
63807;SDS011;49961;43.970;22.868;2023-05-29T04:09:27;6.97;;;3.90;;
63807;SDS011;49961;43.970;22.868;2023-05-29T04:10:27;8.70;;;4.13;;
63807;SDS011;49961;43.970;22.868;2023-05-29T04:11:28;7.67;;;4.40;;
63807;SDS011;49961;43.970;22.868;2023-05-29T04:12:28;7.50;;;4.03;;
63807;SDS011;49961;43.970;22.868;2023-05-29T04:13:29;7.87;;;3.30;;
63807;SDS011;49961;43.970;22.868;2023-05-29T04:14:29;11.33;;;4.57;;
63807;SDS011;49961;43.970;22.868;2023-05-29T04:15:30;9.20;;;4.10;;
63807;SDS011;49961;43.970;22.868;2023-05-29T04:16:30;5.60;;;2.70;;
63807;SDS011;49961;43.970;22.868;2023-05-29T04:17:30;8.43;;;2.90;;
63807;SDS011;49961;43.970;22.868;2023-05-29T04:18:31;8.10;;;3.97;;
63807;SDS011;49961;43.970;22.868;2023-05-29T04:19:31;7.37;;;3.40;;
63807;SDS011;49961;43.970;22.868;2023-05-29T04:20:32;8.07;;;4.23;;
63807;SDS011;49961;43.970;22.868;2023-05-29T04:21:32;8.33;;;4.23;;
63807;SDS011;49961;43.970;22.868;2023-05-29T04:22:33;6.03;;;3.00;;
63807;SDS011;49961;43.970;22.868;2023-05-29T04:23:33;11.37;;;4.57;;
63807;SDS011;49961;43.970;22.868;2023-05-29T04:24:34;9.17;;;4.33;;
63807;SDS011;49961;43.970;22.868;2023-05-29T04:25:35;8.60;;;4.40;;
63807;SDS011;49961;43.970;22.868;2023-05-29T04:26:36;7.63;;;3.27;;
63807;SDS011;49961;43.970;22.868;2023-05-29T04:27:41;8.33;;;3.93;;
63807;SDS011;49961;43.970;22.868;2023-05-29T04:28:41;7.63;;;3.93;;
63807;SDS011;49961;43.970;22.868;2023-05-29T04:29:43;8.63;;;3.83;;
63807;SDS011;49961;43.970;22.868;2023-05-29T04:30:43;10.00;;;3.43;;
63807;SDS011;49961;43.970;22.868;2023-05-29T04:31:44;9.63;;;3.00;;
63807;SDS011;49961;43.970;22.868;2023-05-29T04:32:45;6.60;;;3.50;;
63807;SDS011;49961;43.970;22.868;2023-05-29T04:33:46;7.87;;;4.03;;
63807;SDS011;49961;43.970;22.868;2023-05-29T04:34:47;7.40;;;3.00;;
63807;SDS011;49961;43.970;22.868;2023-05-29T04:35:47;11.37;;;3.97;;
63807;SDS011;49961;43.970;22.868;2023-05-29T04:36:48;19.13;;;6.40;;
63807;SDS011;49961;43.970;22.868;2023-05-29T04:37:49;9.27;;;4.70;;
63807;SDS011;49961;43.970;22.868;2023-05-29T04:38:49;16.37;;;5.93;;
63807;SDS011;49961;43.970;22.868;2023-05-29T04:39:51;14.40;;;5.80;;
63807;SDS011;49961;43.970;22.868;2023-05-29T04:40:51;12.47;;;5.17;;
63807;SDS011;49961;43.970;22.868;2023-05-29T04:41:52;11.00;;;4.37;;
63807;SDS011;49961;43.970;22.868;2023-05-29T04:42:52;12.70;;;5.27;;
63807;SDS011;49961;43.970;22.868;2023-05-29T04:43:53;7.93;;;4.70;;
63807;SDS011;49961;43.970;22.868;2023-05-29T04:44:55;9.93;;;4.53;;
63807;SDS011;49961;43.970;22.868;2023-05-29T04:45:55;12.80;;;4.93;;
63807;SDS011;49961;43.970;22.868;2023-05-29T04:46:57;11.10;;;5.80;;
63807;SDS011;49961;43.970;22.868;2023-05-29T04:47:58;10.30;;;5.77;;
63807;SDS011;49961;43.970;22.868;2023-05-29T04:48:58;8.97;;;6.80;;
63807;SDS011;49961;43.970;22.868;2023-05-29T04:49:59;10.60;;;7.60;;
63807;SDS011;49961;43.970;22.868;2023-05-29T04:51:00;8.67;;;5.67;;
63807;SDS011;49961;43.970;22.868;2023-05-29T04:52:00;11.20;;;7.07;;
63807;SDS011;49961;43.970;22.868;2023-05-29T04:53:02;9.53;;;6.07;;
63807;SDS011;49961;43.970;22.868;2023-05-29T04:54:03;12.67;;;5.60;;
63807;SDS011;49961;43.970;22.868;2023-05-29T04:55:03;12.93;;;8.47;;
63807;SDS011;49961;43.970;22.868;2023-05-29T04:56:05;12.13;;;8.67;;
63807;SDS011;49961;43.970;22.868;2023-05-29T04:57:05;11.80;;;6.40;;
63807;SDS011;49961;43.970;22.868;2023-05-29T04:58:06;13.97;;;6.93;;
63807;SDS011;49961;43.970;22.868;2023-05-29T04:59:06;11.57;;;6.77;;
63807;SDS011;49961;43.970;22.868;2023-05-29T05:00:07;12.07;;;7.23;;
63807;SDS011;49961;43.970;22.868;2023-05-29T05:01:11;12.10;;;6.87;;
63807;SDS011;49961;43.970;22.868;2023-05-29T05:02:14;10.50;;;5.47;;
63807;SDS011;49961;43.970;22.868;2023-05-29T05:03:14;10.77;;;5.97;;
63807;SDS011;49961;43.970;22.868;2023-05-29T05:04:16;10.23;;;6.10;;
63807;SDS011;49961;43.970;22.868;2023-05-29T05:05:17;12.10;;;6.20;;
63807;SDS011;49961;43.970;22.868;2023-05-29T05:06:17;11.40;;;6.20;;
63807;SDS011;49961;43.970;22.868;2023-05-29T05:07:18;12.60;;;6.03;;
63807;SDS011;49961;43.970;22.868;2023-05-29T05:08:19;12.87;;;7.73;;
63807;SDS011;49961;43.970;22.868;2023-05-29T05:09:19;13.20;;;6.97;;
63807;SDS011;49961;43.970;22.868;2023-05-29T05:10:19;9.67;;;5.90;;
63807;SDS011;49961;43.970;22.868;2023-05-29T05:11:22;9.80;;;6.40;;
63807;SDS011;49961;43.970;22.868;2023-05-29T05:12:23;13.77;;;6.93;;
63807;SDS011;49961;43.970;22.868;2023-05-29T05:13:24;15.23;;;6.40;;
63807;SDS011;49961;43.970;22.868;2023-05-29T05:14:24;9.97;;;6.30;;
63807;SDS011;49961;43.970;22.868;2023-05-29T05:15:25;10.97;;;6.00;;
63807;SDS011;49961;43.970;22.868;2023-05-29T05:16:25;10.73;;;5.67;;
63807;SDS011;49961;43.970;22.868;2023-05-29T05:17:26;7.73;;;5.40;;
63807;SDS011;49961;43.970;22.868;2023-05-29T05:18:26;11.50;;;6.10;;
63807;SDS011;49961;43.970;22.868;2023-05-29T05:19:27;10.93;;;6.40;;
63807;SDS011;49961;43.970;22.868;2023-05-29T05:20:27;13.30;;;6.83;;
63807;SDS011;49961;43.970;22.868;2023-05-29T05:21:27;11.70;;;6.00;;
63807;SDS011;49961;43.970;22.868;2023-05-29T05:22:31;12.67;;;6.53;;
63807;SDS011;49961;43.970;22.868;2023-05-29T05:23:31;12.77;;;6.33;;
63807;SDS011;49961;43.970;22.868;2023-05-29T05:24:32;11.97;;;6.23;;
63807;SDS011;49961;43.970;22.868;2023-05-29T05:25:32;13.70;;;6.67;;
63807;SDS011;49961;43.970;22.868;2023-05-29T05:26:35;23.33;;;13.20;;
63807;SDS011;49961;43.970;22.868;2023-05-29T05:27:35;15.07;;;8.73;;
63807;SDS011;49961;43.970;22.868;2023-05-29T05:28:35;20.03;;;11.20;;
63807;SDS011;49961;43.970;22.868;2023-05-29T05:29:36;15.90;;;8.00;;
63807;SDS011;49961;43.970;22.868;2023-05-29T05:30:36;10.70;;;7.10;;
63807;SDS011;49961;43.970;22.868;2023-05-29T05:31:37;14.50;;;8.07;;
63807;SDS011;49961;43.970;22.868;2023-05-29T05:32:37;11.33;;;7.37;;
63807;SDS011;49961;43.970;22.868;2023-05-29T05:33:37;20.93;;;9.53;;
63807;SDS011;49961;43.970;22.868;2023-05-29T05:34:38;12.83;;;8.77;;
63807;SDS011;49961;43.970;22.868;2023-05-29T05:35:38;14.60;;;8.33;;
63807;SDS011;49961;43.970;22.868;2023-05-29T05:36:39;11.60;;;7.63;;
63807;SDS011;49961;43.970;22.868;2023-05-29T05:37:39;9.83;;;7.30;;
63807;SDS011;49961;43.970;22.868;2023-05-29T05:38:40;12.23;;;7.40;;
63807;SDS011;49961;43.970;22.868;2023-05-29T05:39:40;12.47;;;7.30;;
63807;SDS011;49961;43.970;22.868;2023-05-29T05:40:41;13.47;;;6.73;;
63807;SDS011;49961;43.970;22.868;2023-05-29T05:41:41;9.90;;;6.80;;
63807;SDS011;49961;43.970;22.868;2023-05-29T05:42:42;11.63;;;7.40;;
63807;SDS011;49961;43.970;22.868;2023-05-29T05:43:42;11.60;;;6.77;;
63807;SDS011;49961;43.970;22.868;2023-05-29T05:44:42;13.70;;;7.70;;
63807;SDS011;49961;43.970;22.868;2023-05-29T05:45:43;11.57;;;8.07;;
63807;SDS011;49961;43.970;22.868;2023-05-29T05:46:43;11.73;;;7.43;;
63807;SDS011;49961;43.970;22.868;2023-05-29T05:47:45;12.00;;;7.27;;
63807;SDS011;49961;43.970;22.868;2023-05-29T05:48:46;11.90;;;7.27;;
63807;SDS011;49961;43.970;22.868;2023-05-29T05:49:47;11.20;;;7.57;;
63807;SDS011;49961;43.970;22.868;2023-05-29T05:50:49;13.23;;;7.37;;
63807;SDS011;49961;43.970;22.868;2023-05-29T05:51:50;9.10;;;7.20;;
63807;SDS011;49961;43.970;22.868;2023-05-29T05:52:50;11.43;;;7.30;;
63807;SDS011;49961;43.970;22.868;2023-05-29T05:53:51;12.20;;;7.40;;
63807;SDS011;49961;43.970;22.868;2023-05-29T05:54:51;12.83;;;6.90;;
63807;SDS011;49961;43.970;22.868;2023-05-29T05:55:52;12.13;;;6.83;;
63807;SDS011;49961;43.970;22.868;2023-05-29T05:56:52;11.47;;;7.03;;
63807;SDS011;49961;43.970;22.868;2023-05-29T05:57:52;12.23;;;7.53;;
63807;SDS011;49961;43.970;22.868;2023-05-29T05:58:53;15.27;;;7.60;;
63807;SDS011;49961;43.970;22.868;2023-05-29T05:59:53;9.70;;;6.77;;
63807;SDS011;49961;43.970;22.868;2023-05-29T06:00:54;15.60;;;7.57;;
63807;SDS011;49961;43.970;22.868;2023-05-29T06:01:54;14.90;;;8.80;;
63807;SDS011;49961;43.970;22.868;2023-05-29T06:02:55;12.73;;;7.77;;
63807;SDS011;49961;43.970;22.868;2023-05-29T06:03:55;16.50;;;8.20;;
63807;SDS011;49961;43.970;22.868;2023-05-29T06:04:56;14.30;;;7.40;;
63807;SDS011;49961;43.970;22.868;2023-05-29T06:05:56;11.43;;;7.60;;